Time;durP1;ratioP1;P1;durP2;ratioP2;P2;SDS_P1;SDS_P2;PMS_P1;PMS_P2;Temp;Humidity;BMP_temperature;BMP_pressure;BME280_temperature;BME280_humidity;BME280_pressure;Samples;Min_cycle;Max_cycle;Signal;HPM_P1;HPM_P2
2022/04/05 00:00:18;;;;;;;15.38;7.55;;;;;;;6.08;75.37;96759.13;5006642;28;20096;-61
2022/04/05 00:02:45;;;;;;;18.58;7.63;;;;;;;6.64;73.94;96821.28;5007286;28;20519;-62
2022/04/05 00:05:12;;;;;;;21.33;9.60;;;;;;;6.62;74.20;96823.59;5005442;28;20140;-63
2022/04/05 00:07:38;;;;;;;14.80;8.35;;;;;;;6.70;73.68;96819.88;5007239;28;20053;-58
2022/04/05 00:10:05;;;;;;;12.82;7.32;;;;;;;6.55;74.41;96790.38;5013491;28;20061;-58
2022/04/05 00:12:32;;;;;;;13.93;7.60;;;;;;;6.67;74.18;96809.56;5004715;28;20050;-58
2022/04/05 00:14:59;;;;;;;14.88;7.45;;;;;;;6.71;74.25;96804.97;5005011;28;20060;-58
2022/04/05 00:17:25;;;;;;;14.40;7.57;;;;;;;6.44;73.70;96756.25;5004897;28;20050;-61
2022/04/05 00:19:52;;;;;;;14.02;7.50;;;;;;;6.57;74.86;96798.25;5006555;28;20057;-61
2022/04/05 00:22:19;;;;;;;15.25;7.70;;;;;;;6.63;74.67;96792.16;5006701;28;20141;-62
2022/04/05 00:24:45;;;;;;;15.18;8.13;;;;;;;6.38;74.59;96763.16;5006186;28;20053;-62
2022/04/05 00:27:12;;;;;;;25.55;11.63;;;;;;;6.52;74.89;96780.06;5006205;28;20049;-58
2022/04/05 00:29:39;;;;;;;19.10;8.95;;;;;;;6.53;75.43;96798.16;5006592;28;20244;-63
2022/04/05 00:32:06;;;;;;;15.95;8.05;;;;;;;6.63;74.97;96816.13;5004018;28;20050;-62
2022/04/05 00:34:32;;;;;;;15.93;8.30;;;;;;;5.87;73.82;96665.03;5004293;28;20066;-63
2022/04/05 00:36:59;;;;;;;14.18;8.75;;;;;;;6.80;73.40;96802.03;5005752;28;20493;-59
2022/04/05 00:39:27;;;;;;;15.50;8.50;;;;;;;6.79;73.84;96801.25;5006275;28;20053;-61
2022/04/05 00:41:53;;;;;;;17.85;8.57;;;;;;;6.50;76.55;96798.84;5004532;28;20050;-60
2022/04/05 00:44:20;;;;;;;18.17;8.85;;;;;;;6.18;77.63;96769.63;5006309;28;20240;-62
2022/04/05 00:46:48;;;;;;;20.90;9.27;;;;;;;6.25;78.38;96797.34;5006019;28;20050;-58
2022/04/05 00:49:18;;;;;;;18.52;9.05;;;;;;;6.06;77.07;96740.25;5006047;28;20058;-62
2022/04/05 00:51:45;;;;;;;22.00;9.18;;;;;;;6.32;77.63;96766.50;5006105;28;20053;-57
2022/04/05 00:54:13;;;;;;;20.77;9.13;;;;;;;6.50;77.97;96792.53;5005853;28;20049;-62
2022/04/05 00:56:40;;;;;;;17.63;9.32;;;;;;;6.62;78.14;96798.03;5005304;28;20051;-62
2022/04/05 00:59:09;;;;;;;17.90;8.80;;;;;;;6.50;77.61;96787.84;5005559;28;20056;-62
2022/04/05 01:01:37;;;;;;;12.07;7.82;;;;;;;6.51;77.78;96789.47;5003640;28;20054;-60
2022/04/05 01:04:05;;;;;;;13.38;6.78;;;;;;;6.39;77.21;96780.44;5004399;28;20050;-57
2022/04/05 01:06:39;;;;;;;14.15;7.35;;;;;;;6.35;77.24;96777.63;5004817;28;20049;-62
2022/04/05 01:09:09;;;;;;;10.73;5.68;;;;;;;6.01;76.98;96720.44;5005316;28;20050;-57
2022/04/05 01:11:36;;;;;;;14.88;7.22;;;;;;;5.81;77.48;96726.88;5005535;28;20065;-63
2022/04/05 01:14:04;;;;;;;20.73;9.10;;;;;;;6.33;77.32;96782.66;5005498;28;20065;-62
2022/04/05 01:16:31;;;;;;;36.92;16.15;;;;;;;5.87;76.07;96700.78;5005016;28;20049;-59
2022/04/05 01:18:58;;;;;;;25.80;11.38;;;;;;;5.20;76.90;96604.56;5005160;28;20057;-60
2022/04/05 01:21:25;;;;;;;19.02;8.85;;;;;;;6.12;76.99;96738.03;5005253;28;20065;-59
2022/04/05 01:24:11;;;;;;;12.95;7.32;;;;;;;6.34;77.02;96773.25;5005144;28;20050;-62
2022/04/05 01:26:48;;;;;;;14.55;7.88;;;;;;;6.13;76.68;96751.44;5003292;28;20520;-63
2022/04/05 01:29:16;;;;;;;16.95;8.23;;;;;;;6.10;76.95;96729.34;5005167;28;20168;-57
2022/04/05 01:31:49;;;;;;;18.95;9.75;;;;;;;6.39;77.54;96764.75;5005099;28;20440;-58
2022/04/05 01:34:18;;;;;;;16.63;8.95;;;;;;;6.33;77.23;96768.91;5003784;28;20085;-62
2022/04/05 01:36:49;;;;;;;16.60;8.13;;;;;;;6.25;77.58;96780.84;5004663;28;20049;-62
2022/04/05 01:39:19;;;;;;;14.98;7.68;;;;;;;6.18;77.51;96775.13;5003406;28;20053;-58
2022/04/05 01:41:46;;;;;;;15.52;8.20;;;;;;;6.02;78.22;96777.03;5004409;28;20141;-62
2022/04/05 01:44:13;;;;;;;13.30;7.85;;;;;;;5.51;78.08;96685.16;5005266;28;20433;-57
2022/04/05 01:46:40;;;;;;;12.85;6.82;;;;;;;6.05;77.82;96760.63;5004657;28;20267;-61
2022/04/05 01:49:09;;;;;;;13.40;7.15;;;;;;;6.01;77.06;96748.72;5005359;28;20440;-58
2022/04/05 01:51:37;;;;;;;14.18;7.97;;;;;;;5.74;77.10;96702.72;5005259;28;20054;-58
2022/04/05 01:54:05;;;;;;;19.70;10.98;;;;;;;5.67;77.83;96704.47;5005019;28;20439;-58
2022/04/05 01:56:33;;;;;;;13.05;7.38;;;;;;;6.06;78.30;96758.69;5004656;28;20251;-62
2022/04/05 01:59:00;;;;;;;13.13;7.07;;;;;;;5.87;77.44;96720.81;5003270;28;20050;-62
2022/04/05 02:01:27;;;;;;;14.27;8.23;;;;;;;5.69;76.92;96685.69;5004509;28;20057;-58
2022/04/05 02:03:54;;;;;;;13.32;7.72;;;;;;;5.76;76.50;96694.13;5002881;28;20472;-62
2022/04/05 02:06:21;;;;;;;17.67;6.88;;;;;;;5.79;76.84;96698.94;5004488;28;20057;-58
2022/04/05 02:08:48;;;;;;;11.55;7.03;;;;;;;6.13;76.99;96762.44;5004510;28;20056;-58
2022/04/05 02:11:14;;;;;;;12.98;7.10;;;;;;;6.03;77.87;96762.13;5004424;28;20497;-58
2022/04/05 02:13:41;;;;;;;12.52;7.85;;;;;;;5.20;83.86;96755.56;5004224;28;20057;-62
2022/04/05 02:16:07;;;;;;;16.33;8.05;;;;;;;5.02;83.57;96697.34;5002601;28;20070;-58
2022/04/05 02:18:37;;;;;;;15.77;8.25;;;;;;;5.47;83.30;96771.34;5004287;28;20058;-63
2022/04/05 02:21:05;;;;;;;15.52;7.75;;;;;;;5.40;82.58;96743.66;5004223;28;20050;-62
2022/04/05 02:23:31;;;;;;;16.00;7.78;;;;;;;5.57;82.53;96759.88;5004193;28;20167;-61
2022/04/05 02:25:59;;;;;;;15.65;8.45;;;;;;;5.68;81.70;96772.00;5004153;28;20061;-58
2022/04/05 02:28:26;;;;;;;16.08;8.10;;;;;;;5.50;80.15;96727.50;5004613;28;20050;-57
2022/04/05 02:30:53;;;;;;;15.15;7.95;;;;;;;5.55;81.73;96753.94;5003892;28;20053;-57
2022/04/05 02:33:20;;;;;;;13.27;7.03;;;;;;;5.57;81.22;96754.38;5003868;28;20057;-58
2022/04/05 02:35:48;;;;;;;13.73;7.20;;;;;;;5.51;81.27;96747.53;5003522;28;20056;-61
2022/04/05 02:38:15;;;;;;;13.93;6.85;;;;;;;5.18;81.50;96687.28;5004048;28;20050;-62
2022/04/05 02:40:42;;;;;;;14.70;6.35;;;;;;;5.55;81.88;96745.69;5003545;28;20575;-57
2022/04/05 02:43:08;;;;;;;15.30;7.30;;;;;;;5.47;81.94;96738.41;5002621;28;20436;-63
2022/04/05 02:45:35;;;;;;;15.65;7.57;;;;;;;5.61;81.58;96747.84;5003859;28;20050;-59
2022/04/05 02:48:03;;;;;;;16.83;7.97;;;;;;;5.66;81.13;96747.63;5003506;28;20520;-63
2022/04/05 02:50:29;;;;;;;17.95;7.90;;;;;;;5.57;82.13;96743.41;5003346;28;20050;-62
2022/04/05 02:52:56;;;;;;;13.57;7.38;;;;;;;5.49;81.88;96745.13;5004050;28;20050;-62
2022/04/05 02:55:23;;;;;;;17.13;8.38;;;;;;;5.49;82.13;96747.06;5005143;28;20058;-62
2022/04/05 02:57:50;;;;;;;14.02;7.65;;;;;;;5.46;80.94;96725.78;5008229;28;20050;-63
2022/04/05 03:00:17;;;;;;;15.07;7.93;;;;;;;5.58;80.62;96745.03;5007347;28;20418;-62
2022/04/05 03:02:44;;;;;;;17.17;8.98;;;;;;;5.35;81.69;96741.13;5006324;28;20060;-62
2022/04/05 03:05:13;;;;;;;21.17;8.18;;;;;;;4.92;81.89;96683.25;5008062;28;20050;-60
2022/04/05 03:07:41;;;;;;;14.77;8.05;;;;;;;4.78;83.45;96680.84;5008155;28;20112;-58
2022/04/05 03:10:09;;;;;;;14.60;8.25;;;;;;;5.32;83.20;96736.34;5007532;28;20050;-59
2022/04/05 03:12:37;;;;;;;16.80;8.23;;;;;;;5.31;83.01;96729.25;5005912;28;20054;-58
2022/04/05 03:15:07;;;;;;;19.33;8.95;;;;;;;5.03;82.92;96662.44;5006028;28;20049;-58
2022/04/05 03:17:34;;;;;;;93.78;33.65;;;;;;;5.50;81.63;96721.22;5005839;28;20054;-58
2022/04/05 03:20:03;;;;;;;85.03;32.95;;;;;;;5.36;81.79;96709.81;5007430;28;20205;-62
2022/04/05 03:22:30;;;;;;;50.70;22.92;;;;;;;5.07;81.43;96669.66;5007487;28;20053;-58
2022/04/05 03:24:57;;;;;;;31.95;15.48;;;;;;;5.63;81.30;96714.53;5007135;28;20535;-63
2022/04/05 03:27:24;;;;;;;27.70;13.57;;;;;;;5.60;81.41;96720.72;5007579;28;20061;-62
2022/04/05 03:29:51;;;;;;;27.95;13.18;;;;;;;5.16;81.24;96640.13;5007372;28;20430;-61
2022/04/05 03:32:17;;;;;;;18.60;9.57;;;;;;;5.62;80.86;96718.44;5007293;28;20080;-58
2022/04/05 03:34:44;;;;;;;19.42;9.77;;;;;;;5.43;80.36;96704.50;5006877;28;20050;-62
2022/04/05 03:37:11;;;;;;;22.30;10.52;;;;;;;5.41;81.75;96731.50;5007102;28;20560;-62
2022/04/05 03:39:39;;;;;;;22.52;12.73;;;;;;;5.33;82.22;96715.94;5006800;28;20064;-60
2022/04/05 03:42:06;;;;;;;20.90;11.05;;;;;;;5.55;81.75;96729.19;5005578;28;20064;-60
2022/04/05 03:44:33;;;;;;;22.42;11.82;;;;;;;5.48;81.84;96729.00;5005704;28;20065;-61
2022/04/05 03:47:00;;;;;;;16.83;9.70;;;;;;;5.54;81.23;96730.34;5007287;28;20062;-58
2022/04/05 03:49:27;;;;;;;16.50;9.25;;;;;;;5.56;81.67;96730.81;5004992;28;20050;-61
2022/04/05 03:51:53;;;;;;;16.90;9.27;;;;;;;5.43;80.54;96731.97;5006794;28;20057;-63
2022/04/05 03:54:20;;;;;;;16.98;9.70;;;;;;;5.32;80.60;96728.09;5006884;28;20057;-62
2022/04/05 03:56:47;;;;;;;20.00;9.80;;;;;;;4.85;82.69;96688.53;5005478;28;20053;-63
2022/04/05 03:59:13;;;;;;;21.15;10.57;;;;;;;5.31;82.52;96732.78;5006789;28;20046;-59
2022/04/05 04:01:40;;;;;;;19.15;10.70;;;;;;;5.36;82.55;96737.25;5006564;28;20053;-62
2022/04/05 04:04:08;;;;;;;20.75;10.10;;;;;;;5.35;82.06;96738.38;5006855;28;20058;-63
2022/04/05 04:06:34;;;;;;;15.52;7.97;;;;;;;5.33;82.46;96735.16;5003779;28;20058;-62
2022/04/05 04:09:01;;;;;;;22.35;8.57;;;;;;;5.35;82.29;96735.63;5008974;28;20045;-63
2022/04/05 04:11:28;;;;;;;20.67;9.77;;;;;;;5.36;81.82;96742.75;5026087;28;20053;-62
2022/04/05 04:13:55;;;;;;;29.45;11.55;;;;;;;5.45;81.83;96765.41;5026375;28;20056;-57
2022/04/05 04:16:21;;;;;;;25.48;11.45;;;;;;;5.49;81.64;96741.56;5026044;28;20045;-58
2022/04/05 04:18:48;;;;;;;24.63;10.38;;;;;;;5.53;81.28;96750.75;5024641;28;20084;-62
2022/04/05 04:21:15;;;;;;;24.67;8.52;;;;;;;4.66;81.64;96659.69;5025939;28;20061;-58
2022/04/05 04:23:41;;;;;;;54.65;21.77;;;;;;;5.17;83.19;96735.06;5024334;28;20050;-62
2022/04/05 04:26:08;;;;;;;50.70;23.02;;;;;;;5.31;83.04;96746.50;5025800;28;20424;-63
2022/04/05 04:28:35;;;;;;;47.97;28.38;;;;;;;5.20;82.52;96722.63;5024410;28;20057;-63
2022/04/05 04:31:02;;;;;;;32.05;15.90;;;;;;;5.25;82.98;96736.13;5025965;28;20562;-63
2022/04/05 04:33:28;;;;;;;26.63;14.07;;;;;;;5.24;83.12;96729.00;5025815;28;20406;-62
2022/04/05 04:35:55;;;;;;;29.65;18.00;;;;;;;5.28;83.14;96743.66;5025749;28;20049;-62
2022/04/05 04:38:22;;;;;;;29.67;13.68;;;;;;;5.30;82.87;96744.09;5025922;28;20456;-62
2022/04/05 04:40:50;;;;;;;21.88;11.85;;;;;;;5.47;81.92;96749.38;5023858;28;20500;-57
2022/04/05 04:43:18;;;;;;;22.42;11.70;;;;;;;5.49;81.35;96747.88;5025905;28;20056;-61
2022/04/05 04:45:45;;;;;;;26.65;10.65;;;;;;;5.55;81.32;96748.44;5025235;28;20055;-61
2022/04/05 04:48:12;;;;;;;19.90;9.98;;;;;;;4.69;81.63;96597.88;5025202;28;20548;-57
2022/04/05 04:50:39;;;;;;;30.40;14.02;;;;;;;5.51;81.36;96731.88;5023711;28;20045;-62
2022/04/05 04:53:06;;;;;;;26.73;12.73;;;;;;;5.70;80.68;96753.22;5017610;28;20045;-58
2022/04/05 04:55:33;;;;;;;23.65;12.82;;;;;;;5.86;81.29;96756.91;5024146;28;20056;-62
2022/04/05 04:58:20;;;;;;;23.73;12.35;;;;;;;5.91;80.08;96748.44;5025178;28;20049;-57
2022/04/05 05:00:48;;;;;;;25.52;14.43;;;;;;;6.00;79.24;96729.84;5025073;28;20437;-60
2022/04/05 05:03:18;;;;;;;25.98;13.07;;;;;;;6.27;78.89;96747.50;5025172;28;20057;-61
2022/04/05 05:05:46;;;;;;;23.83;11.73;;;;;;;6.31;77.98;96751.94;5024995;28;20457;-58
2022/04/05 05:08:12;;;;;;;25.75;11.23;;;;;;;6.42;76.16;96753.03;5024515;28;20063;-62
2022/04/05 05:10:39;;;;;;;23.45;11.45;;;;;;;6.41;76.19;96751.44;5012366;28;20532;-58
2022/04/05 05:13:06;;;;;;;21.15;10.60;;;;;;;6.53;76.64;96758.84;5005722;28;20076;-59
2022/04/05 05:15:33;;;;;;;22.85;11.50;;;;;;;6.58;76.44;96751.13;5004988;28;20053;-55
2022/04/05 05:17:59;;;;;;;25.08;12.15;;;;;;;6.81;76.87;96754.91;5004603;28;20056;-57
2022/04/05 05:20:26;;;;;;;24.27;12.75;;;;;;;6.59;79.36;96840.00;5004915;28;20096;-63
2022/04/05 05:22:53;;;;;;;24.85;13.85;;;;;;;6.71;79.63;96757.38;5005132;28;20065;-61
2022/04/05 05:25:20;;;;;;;26.58;14.63;;;;;;;6.50;80.58;96776.84;5003635;28;20508;-62
2022/04/05 05:27:46;;;;;;;27.13;15.30;;;;;;;6.37;79.20;96717.53;5004508;28;20050;-58
2022/04/05 05:30:13;;;;;;;30.80;15.18;;;;;;;6.79;78.89;96757.22;5004718;28;20050;-62
2022/04/05 05:32:49;;;;;;;24.77;14.43;;;;;;;6.96;77.83;96758.81;5004072;28;20050;-57
2022/04/05 05:35:17;;;;;;;22.98;12.95;;;;;;;6.98;77.18;96759.28;5004422;28;20054;-57
2022/04/05 05:37:45;;;;;;;24.63;12.88;;;;;;;7.09;76.74;96772.19;5004908;28;20072;-62
2022/04/05 05:40:13;;;;;;;22.17;11.93;;;;;;;7.32;76.06;96762.13;5004090;28;20073;-58
2022/04/05 05:42:57;;;;;;;24.52;11.90;;;;;;;7.61;75.73;96761.66;5003146;28;20391;-60
2022/04/05 05:45:26;;;;;;;19.85;11.93;;;;;;;7.64;74.26;96760.94;5004948;28;20057;-60
2022/04/05 05:47:53;;;;;;;20.40;11.88;;;;;;;7.69;74.04;96730.34;5005153;28;20088;-59
2022/04/05 05:50:20;;;;;;;23.17;13.32;;;;;;;7.99;73.61;96754.63;5004633;28;20072;-59
2022/04/05 05:52:47;;;;;;;22.00;12.85;;;;;;;8.11;71.34;96757.28;5004704;28;20054;-61
2022/04/05 05:55:16;;;;;;;24.45;12.27;;;;;;;7.53;70.85;96616.59;5004238;28;20060;-59
2022/04/05 05:57:43;;;;;;;20.02;11.65;;;;;;;8.60;68.82;96747.31;5004399;28;20073;-59
2022/04/05 06:00:17;;;;;;;21.27;13.20;;;;;;;6.29;68.50;96341.75;5004184;28;20054;-59
2022/04/05 06:02:45;;;;;;;21.85;11.82;;;;;;;9.16;67.47;96749.16;5004927;28;20482;-59
2022/04/05 06:05:13;;;;;;;27.50;14.55;;;;;;;8.46;65.78;96603.47;5002853;28;20071;-60
2022/04/05 06:07:41;;;;;;;28.40;14.45;;;;;;;9.52;65.30;96745.00;5011730;28;20061;-63
2022/04/05 06:10:10;;;;;;;29.02;15.02;;;;;;;9.69;64.26;96750.00;5013161;28;20061;-64
2022/04/05 06:12:39;;;;;;;24.50;14.30;;;;;;;9.35;63.70;96690.22;5016011;28;20050;-62
2022/04/05 06:15:08;;;;;;;29.85;15.50;;;;;;;9.50;63.42;96697.56;5010741;28;20119;-62
2022/04/05 06:17:43;;;;;;;19.05;11.02;;;;;;;9.69;63.10;96747.25;5021270;28;20515;-64
2022/04/05 06:20:12;;;;;;;23.05;12.27;;;;;;;9.19;62.99;96587.34;5020810;28;20056;-59
2022/04/05 06:22:50;;;;;;;22.75;12.93;;;;;;;10.00;63.39;96683.31;5015169;28;20172;-67
2022/04/05 06:25:20;;;;;;;29.60;14.50;;;;;;;10.57;63.00;96740.97;5012219;28;20053;-60
2022/04/05 06:27:47;;;;;;;51.25;21.20;;;;;;;10.87;62.80;96734.59;5016311;28;20053;-65
2022/04/05 06:30:16;;;;;;;43.72;19.73;;;;;;;11.16;61.44;96739.25;5019386;28;20128;-62
2022/04/05 06:32:43;;;;;;;34.33;16.55;;;;;;;10.98;60.57;96671.75;5023195;28;20045;-58
2022/04/05 06:35:11;;;;;;;28.50;15.27;;;;;;;11.59;59.10;96730.13;5019677;28;20049;-57
2022/04/05 06:37:38;;;;;;;28.83;14.25;;;;;;;11.65;57.91;96717.53;5005886;28;20053;-63
2022/04/05 06:40:07;;;;;;;37.30;18.35;;;;;;;11.76;56.25;96712.88;5008916;28;20062;-65
2022/04/05 06:42:35;;;;;;;37.70;16.75;;;;;;;12.05;55.95;96697.97;5004355;28;20050;-62
2022/04/05 06:45:02;;;;;;;18.58;11.18;;;;;;;11.52;54.78;96605.25;5013860;28;20133;-60
2022/04/05 06:47:29;;;;;;;15.45;9.75;;;;;;;11.95;54.15;96670.94;5003411;28;20054;-59
2022/04/05 06:49:56;;;;;;;34.90;14.93;;;;;;;12.14;54.88;96729.75;5009270;28;20054;-59
2022/04/05 06:52:23;;;;;;;28.27;13.23;;;;;;;12.09;55.23;96737.66;5017652;28;20147;-59
2022/04/05 06:54:49;;;;;;;14.27;9.88;;;;;;;12.08;55.36;96731.31;5013307;28;20468;-57
2022/04/05 06:57:16;;;;;;;23.60;12.30;;;;;;;12.14;55.19;96742.81;5007962;28;20483;-62
2022/04/05 06:59:48;;;;;;;14.60;9.20;;;;;;;11.06;56.88;96701.16;5015638;28;20053;-61
2022/04/05 07:02:15;;;;;;;24.02;11.90;;;;;;;10.18;58.12;96617.91;5006877;28;20436;-59
2022/04/05 07:04:41;;;;;;;19.17;9.30;;;;;;;10.53;60.21;96734.63;5017216;28;20100;-59
2022/04/05 07:07:08;;;;;;;25.38;9.75;;;;;;;10.40;59.76;96741.56;5005876;28;20500;-57
2022/04/05 07:09:35;;;;;;;11.88;8.40;;;;;;;10.22;59.74;96695.47;5014389;28;20049;-59
2022/04/05 07:12:02;;;;;;;13.70;8.70;;;;;;;10.02;61.82;96729.97;5013968;28;20053;-58
2022/04/05 07:14:29;;;;;;;28.60;13.52;;;;;;;10.50;60.86;96737.34;5018644;28;20053;-62
2022/04/05 07:16:55;;;;;;;16.17;8.93;;;;;;;9.96;59.66;96612.47;5012447;28;20064;-57
2022/04/05 07:19:22;;;;;;;28.92;10.50;;;;;;;8.10;60.84;96358.47;5021414;28;20048;-67
2022/04/05 07:21:49;;;;;;;20.63;9.73;;;;;;;10.11;61.95;96728.53;5003957;28;20054;-61
2022/04/05 07:24:16;;;;;;;19.17;9.85;;;;;;;10.56;61.09;96733.84;5014892;28;20058;-57
2022/04/05 07:26:42;;;;;;;15.48;9.32;;;;;;;10.60;60.76;96701.47;5008375;28;20053;-60
2022/04/05 07:29:10;;;;;;;18.98;9.85;;;;;;;11.03;59.61;96729.63;5018580;28;20057;-63
2022/04/05 07:31:37;;;;;;;14.63;8.98;;;;;;;11.29;58.28;96721.16;5016563;28;20046;-62
2022/04/05 07:34:05;;;;;;;19.05;9.65;;;;;;;10.72;58.39;96663.59;5019050;28;20057;-61
2022/04/05 07:36:32;;;;;;;12.00;7.55;;;;;;;11.18;57.02;96720.25;5022468;28;20046;-62
2022/04/05 07:38:59;;;;;;;12.30;7.93;;;;;;;11.57;56.24;96724.19;5007106;28;20511;-59
2022/04/05 07:41:26;;;;;;;19.38;10.55;;;;;;;11.71;55.92;96661.28;5004684;28;20056;-61
2022/04/05 07:43:54;;;;;;;12.07;8.48;;;;;;;12.24;54.20;96722.66;5018429;28;20049;-62
2022/04/05 07:46:21;;;;;;;10.35;7.57;;;;;;;11.62;53.84;96668.31;5005827;28;20057;-59
2022/04/05 07:48:48;;;;;;;34.33;17.77;;;;;;;12.48;52.32;96719.22;5008160;28;20049;-66
2022/04/05 07:51:16;;;;;;;14.70;8.60;;;;;;;12.51;52.02;96715.66;5020469;28;20057;-61
2022/04/05 07:53:43;;;;;;;15.52;8.93;;;;;;;12.45;51.26;96678.31;5022436;28;20467;-56
2022/04/05 07:56:13;;;;;;;12.65;8.25;;;;;;;12.99;50.39;96713.44;5021949;28;20136;-61
2022/04/05 07:58:42;;;;;;;10.32;7.93;;;;;;;13.21;50.35;96693.63;5008898;28;20568;-59
2022/04/05 08:01:10;;;;;;;14.35;8.93;;;;;;;13.35;49.76;96693.66;5007377;28;20100;-64
2022/04/05 08:03:38;;;;;;;17.40;9.75;;;;;;;13.37;49.46;96704.38;5011220;28;20629;-57
2022/04/05 08:06:05;;;;;;;11.30;8.32;;;;;;;13.41;48.23;96703.19;5018937;28;20490;-57
2022/04/05 08:08:32;;;;;;;12.57;7.72;;;;;;;13.55;47.19;96703.19;5006919;28;20405;-60
2022/04/05 08:11:19;;;;;;;8.60;5.82;;;;;;;12.63;47.00;96704.19;5010812;28;20050;-57
2022/04/05 08:13:46;;;;;;;13.05;7.70;;;;;;;12.83;48.16;96705.44;5015556;28;20049;-66
2022/04/05 08:16:13;;;;;;;8.70;6.03;;;;;;;12.85;46.60;96688.38;5023711;28;20056;-62
2022/04/05 08:18:39;;;;;;;10.07;6.43;;;;;;;12.23;49.60;96682.19;5023399;28;20045;-66
2022/04/05 08:21:06;;;;;;;12.52;6.72;;;;;;;12.58;49.55;96687.91;5011155;28;20128;-63
2022/04/05 08:23:33;;;;;;;10.23;6.43;;;;;;;11.87;49.14;96602.72;5017490;28;20050;-66
2022/04/05 08:26:00;;;;;;;9.63;6.20;;;;;;;12.59;48.71;96683.94;5021112;28;20100;-67
2022/04/05 08:28:27;;;;;;;10.88;6.60;;;;;;;12.75;48.42;96659.38;5015477;28;20057;-60
2022/04/05 08:30:54;;;;;;;12.35;6.15;;;;;;;13.01;48.69;96677.72;5006372;28;20107;-58
2022/04/05 08:33:20;;;;;;;10.38;6.43;;;;;;;12.84;48.10;96609.75;5018127;28;20057;-59
2022/04/05 08:35:48;;;;;;;13.60;6.80;;;;;;;13.64;48.63;96661.81;5025335;28;20049;-57
2022/04/05 08:38:14;;;;;;;8.93;6.50;;;;;;;14.03;47.58;96656.19;5022727;28;20053;-59
2022/04/05 08:40:42;;;;;;;11.65;7.15;;;;;;;13.43;48.38;96673.00;5008729;28;20132;-58
2022/04/05 08:43:09;;;;;;;9.23;6.72;;;;;;;13.57;48.04;96664.63;5016796;28;20045;-59
2022/04/05 08:45:36;;;;;;;9.38;6.35;;;;;;;13.67;47.52;96655.44;5023002;28;20052;-58
2022/04/05 08:48:09;;;;;;;16.45;8.98;;;;;;;13.63;47.94;96653.88;5020733;28;20085;-57
2022/04/05 08:50:36;;;;;;;18.88;9.35;;;;;;;11.46;47.28;96274.03;5006078;28;20069;-61
2022/04/05 08:53:03;;;;;;;12.43;7.20;;;;;;;14.14;46.65;96633.88;5019066;28;20053;-63
2022/04/05 08:55:37;;;;;;;9.85;7.28;;;;;;;14.45;45.70;96644.91;5008918;28;20133;-63
2022/04/05 08:58:04;;;;;;;10.48;8.23;;;;;;;14.61;44.99;96652.78;5012380;28;20057;-59
2022/04/05 09:00:31;;;;;;;8.57;6.72;;;;;;;14.77;45.18;96636.38;5010231;28;20046;-65
2022/04/05 09:03:00;;;;;;;9.65;7.00;;;;;;;14.97;45.03;96640.22;5019756;28;20451;-64
2022/04/05 09:05:37;;;;;;;9.23;6.65;;;;;;;14.78;44.12;96618.44;5019675;28;20087;-59
2022/04/05 09:08:28;;;;;;;8.23;6.40;;;;;;;14.90;43.53;96632.72;5018558;28;20064;-60
2022/04/05 09:11:04;;;;;;;8.88;6.32;;;;;;;14.77;42.98;96633.59;5013850;28;20140;-61
2022/04/05 09:13:31;;;;;;;10.48;7.35;;;;;;;14.77;44.63;96622.44;5006078;28;20042;-71
2022/04/05 09:15:59;;;;;;;10.02;8.07;;;;;;;15.12;44.37;96616.63;5012635;28;20063;-63
2022/04/05 09:18:36;;;;;;;8.30;6.70;;;;;;;14.92;42.76;96573.75;5006162;28;20133;-66
2022/04/05 09:21:05;;;;;;;7.68;6.20;;;;;;;15.13;42.51;96618.22;5006382;28;20057;-60
2022/04/05 09:23:34;;;;;;;8.60;6.35;;;;;;;15.29;42.71;96615.69;5012330;28;20056;-58
2022/04/05 09:26:03;;;;;;;8.27;5.95;;;;;;;15.34;41.98;96578.97;5021145;28;20041;-57
2022/04/05 09:28:37;;;;;;;7.22;6.53;;;;;;;15.32;41.84;96547.88;5007775;28;20053;-59
2022/04/05 09:31:06;;;;;;;8.00;6.05;;;;;;;15.85;41.96;96620.78;5017433;28;20062;-58
2022/04/05 09:33:36;;;;;;;7.32;6.55;;;;;;;15.98;41.48;96601.50;5003612;28;20560;-57
2022/04/05 09:36:15;;;;;;;7.70;6.18;;;;;;;16.26;41.18;96592.78;5004114;28;20513;-58
2022/04/05 09:38:44;;;;;;;7.22;5.78;;;;;;;16.57;40.74;96589.59;5004389;28;20065;-68
2022/04/05 09:41:22;;;;;;;8.88;6.63;;;;;;;16.41;40.86;96591.38;5003297;28;20049;-69
2022/04/05 09:44:07;;;;;;;9.45;6.53;;;;;;;16.34;39.78;96525.16;5021841;28;20053;-58
2022/04/05 09:46:36;;;;;;;9.75;6.47;;;;;;;16.56;38.44;96560.06;5012444;28;20057;-61
2022/04/05 09:49:05;;;;;;;6.93;6.10;;;;;;;16.48;38.64;96580.13;5015345;28;20121;-60
2022/04/05 09:51:37;;;;;;;8.60;6.60;;;;;;;16.53;39.63;96588.84;5021091;28;20057;-59
2022/04/05 09:54:05;;;;;;;9.50;6.93;;;;;;;16.94;39.66;96579.47;5006156;28;20527;-57
2022/04/05 09:56:33;;;;;;;9.80;6.53;;;;;;;17.29;38.23;96584.53;5003503;28;20049;-60
2022/04/05 09:59:14;;;;;;;7.47;5.85;;;;;;;17.21;37.90;96574.66;5014450;28;20504;-65
2022/04/05 10:01:41;;;;;;;10.73;6.70;;;;;;;17.22;37.67;96576.22;5017346;28;20054;-65
2022/04/05 10:04:11;;;;;;;9.05;6.45;;;;;;;16.78;37.24;96501.00;5017306;28;20163;-65
2022/04/05 10:06:42;;;;;;;6.05;5.45;;;;;;;17.06;35.86;96564.88;5004666;28;20049;-59
2022/04/05 10:09:13;;;;;;;7.85;6.50;;;;;;;16.96;36.66;96526.69;5004078;28;20061;-58
2022/04/05 10:11:41;;;;;;;7.57;6.60;;;;;;;17.30;37.25;96563.69;5004858;28;20060;-63
2022/04/05 10:14:12;;;;;;;7.45;6.45;;;;;;;16.95;37.75;96530.69;5007882;28;20053;-59
2022/04/05 10:16:39;;;;;;;11.07;7.20;;;;;;;17.29;36.89;96550.91;5010846;28;20057;-57
2022/04/05 10:19:10;;;;;;;9.90;7.75;;;;;;;17.40;37.17;96548.72;5003354;28;20678;-62
2022/04/05 10:21:41;;;;;;;7.72;5.70;;;;;;;17.58;36.28;96552.00;5006402;28;20428;-60
2022/04/05 10:24:09;;;;;;;7.97;6.22;;;;;;;17.65;36.60;96535.91;5004799;28;20050;-63
2022/04/05 10:26:39;;;;;;;7.82;6.10;;;;;;;17.34;36.19;96547.63;5010323;28;20045;-60
2022/04/05 10:29:09;;;;;;;9.15;7.00;;;;;;;17.07;37.81;96532.91;5009875;28;20054;-68
2022/04/05 10:31:49;;;;;;;9.30;6.00;;;;;;;16.66;38.08;96537.94;5005351;28;20048;-63
2022/04/05 10:34:28;;;;;;;8.57;7.10;;;;;;;16.43;38.90;96535.84;5019809;28;20754;-65
2022/04/05 10:37:04;;;;;;;7.07;6.38;;;;;;;17.30;37.86;96524.50;5019615;28;20069;-67
2022/04/05 10:39:31;;;;;;;7.30;5.95;;;;;;;17.61;36.73;96525.94;5004512;28;20444;-65
2022/04/05 10:42:15;;;;;;;9.38;7.35;;;;;;;18.17;37.37;96518.44;5004905;28;20184;-65
2022/04/05 10:45:14;;;;;;;9.90;7.38;;;;;;;17.88;36.72;96459.38;5005355;28;20147;-59
2022/04/05 10:47:59;;;;;;;11.88;8.40;;;;;;;18.32;36.53;96517.69;5020864;28;20049;-58
2022/04/05 10:51:07;;;;;;;8.68;5.72;;;;;;;18.42;35.93;96516.72;5007778;28;20115;-65
2022/04/05 10:54:17;;;;;;;7.60;5.88;;;;;;;18.19;36.09;96485.97;5011128;28;20056;-60
2022/04/05 10:56:30;;;;;;;6.88;6.28;;;;;;;17.98;36.73;96453.56;4995420;28;20046;-61
2022/04/05 10:59:05;;;;;;;6.57;5.75;;;;;;;18.51;36.49;96494.47;5002845;28;20064;-68
2022/04/05 11:01:43;;;;;;;10.10;6.97;;;;;;;18.10;36.94;96505.34;5010881;28;20053;-62
2022/04/05 11:04:20;;;;;;;9.32;7.53;;;;;;;18.06;36.38;96487.84;5007922;28;20432;-64
2022/04/05 11:06:59;;;;;;;7.55;6.03;;;;;;;18.50;35.29;96489.28;5022736;28;21071;-65
2022/04/05 11:09:33;;;;;;;8.60;6.15;;;;;;;18.15;35.56;96490.84;5008964;28;20529;-62
2022/04/05 11:12:01;;;;;;;;;;;;;;;18.02;35.67;96487.09;5005822;28;20075;-61
2022/04/05 11:14:43;;;;;;;7.10;6.28;;;;;;;18.25;34.98;96483.41;5014829;28;19925;-69
2022/04/05 11:17:14;;;;;;;8.93;7.03;;;;;;;18.22;35.57;96473.06;5012109;28;20440;-61
2022/04/05 11:19:46;;;;;;;8.60;6.28;;;;;;;17.99;35.34;96465.53;5008595;28;20543;-64
2022/04/05 11:22:21;;;;;;;6.68;5.97;;;;;;;17.62;36.05;96457.53;5012283;28;20050;-58
2022/04/05 11:24:51;;;;;;;8.60;5.90;;;;;;;17.40;36.95;96462.69;5001651;28;20125;-58
2022/04/05 11:27:30;;;;;;;7.25;5.97;;;;;;;15.77;39.04;96434.97;5013718;28;20045;-64
2022/04/05 11:30:27;;;;;;;11.68;7.32;;;;;;;16.36;38.86;96464.03;5011765;28;20437;-63
2022/04/05 11:33:08;;;;;;;5.40;4.90;;;;;;;16.49;38.25;96453.91;5025064;28;20049;-58
2022/04/05 11:35:49;;;;;;;6.47;5.60;;;;;;;16.60;38.09;96454.53;5024532;28;20084;-59
2022/04/05 11:38:19;;;;;;;6.13;5.53;;;;;;;16.34;38.33;96452.50;5014133;28;20088;-63